This is the latest recevied weather packets stored in our database for station/object CE1RLP-34. If no packets are shown the sender has not sent any weather packets the latest 10 day(s).
| Time | Temp. | Humidity | Pressure | Rain* | Wind** | Luminosity | Snow |
|---|---|---|---|---|---|---|---|
| 1778049307 | 11.67° C | 18% | 1083.1 hPa | - | - | - | - |
| 1778048405 | 11.67° C | 20% | 1082.9 hPa | - | - | - | - |
| 1778046633 | 12.22° C | 20% | 1083.1 hPa | - | - | - | - |
| 1778045732 | 12.22° C | 16% | 1083.3 hPa | - | - | - | - |
| 1778044830 | 12.78° C | 15% | 1083.2 hPa | - | - | - | - |
| 1778043930 | 12.78° C | 12% | 1083.3 hPa | - | - | - | - |
| 1778043027 | 12.78° C | 13% | 1083.5 hPa | - | - | - | - |
| 1778042127 | 12.78° C | 12% | 1083.6 hPa | - | - | - | - |
| 1778041224 | 12.78° C | 10% | 1083.7 hPa | - | - | - | - |
| 1778040324 | 13.33° C | 10% | 1083.7 hPa | - | - | - | - |
| 1778039422 | 13.33° C | 10% | 1083.6 hPa | - | - | - | - |
| 1778038522 | 13.89° C | 10% | 1083.6 hPa | - | - | - | - |
| 1778037619 | 13.89° C | 10% | 1083.7 hPa | - | - | - | - |
| 1778036720 | 14.44° C | 10% | 1083.7 hPa | - | - | - | - |
| 1778035817 | 14.44° C | 11% | 1083.6 hPa | - | - | - | - |
| 1778034917 | 14.44° C | 11% | 1083.7 hPa | - | - | - | - |
| 1778034015 | 15° C | 12% | 1083.7 hPa | - | - | - | - |
| 1778033114 | 15° C | 11% | 1083.7 hPa | - | - | - | - |
| 1778032212 | 15° C | 12% | 1083.6 hPa | - | - | - | - |
| 1778031312 | 15° C | 11% | 1083.6 hPa | - | - | - | - |
| 1778030409 | 15° C | 11% | 1083.6 hPa | - | - | - | - |
| 1778029509 | 15.56° C | 11% | 1083.5 hPa | - | - | - | - |
| 1778028606 | 15° C | 12% | 1083.4 hPa | - | - | - | - |
| 1778027706 | 15.56° C | 12% | 1083.4 hPa | - | - | - | - |
| 1778026804 | 15.56° C | 12% | 1083.4 hPa | - | - | - | - |
* Rain since midnight (hover to see other rain measurements)
** Current wind speed in m/s (hover to see current wind gust speed)